This is the latest recevied weather packets stored in our database for station/object SV1TGC. If no packets are shown the sender has not sent any weather packets the latest 10 day(s).
| Time | Temp. | Humidity | Pressure | Rain* | Wind** | Luminosity | Snow |
|---|---|---|---|---|---|---|---|
| 1778034933 | 16.67° C | 65% | 1014.9 hPa | 0 mm | - | - | - |
| 1778034645 | 16.67° C | 65% | 1014.9 hPa | 0 mm | - | - | - |
| 1778033751 | 16.67° C | 64% | 1015.1 hPa | 0 mm | - | - | - |
| 1778032865 | 16.67° C | 65% | 1015.1 hPa | 0 mm | - | - | - |
| 1778030171 | 17.78° C | 60% | 1015.1 hPa | 0 mm | - | - | - |
| 1778029833 | 17.78° C | 60% | 1015.1 hPa | 0 mm | - | - | - |
| 1778029248 | 17.78° C | 60% | 1015.2 hPa | 0 mm | - | - | - |
| 1778024752 | 18.33° C | 57% | 1015.2 hPa | 0 mm | - | - | - |
| 1778023533 | 18.33° C | 58% | 1015.3 hPa | 0 mm | - | - | - |
| 1778022334 | 13.33° C | 70% | 1015.6 hPa | 0 mm | - | - | - |
| 1778022063 | 12.78° C | 69% | 1015.6 hPa | 0 mm | - | - | - |
| 1778020534 | 13.33° C | 69% | 1015.8 hPa | 0 mm | - | - | - |
| 1778019935 | 12.78° C | 68% | 1015.9 hPa | 0 mm | - | - | - |
| 1778019036 | 13.33° C | 67% | 1015.8 hPa | 0 mm | - | - | - |
| 1778018734 | 13.33° C | 68% | 1015.8 hPa | 0 mm | - | - | - |
| 1778018135 | 13.33° C | 66% | 1015.8 hPa | 0 mm | - | - | - |
| 1778017835 | 13.33° C | 66% | 1015.8 hPa | 0 mm | - | - | - |
| 1778016934 | 13.33° C | 64% | 1015.8 hPa | 0 mm | - | - | - |
| 1778016334 | 13.33° C | 64% | 1015.8 hPa | 0 mm | - | - | - |
| 1778015135 | 13.89° C | 62% | 1015.9 hPa | 0 mm | - | - | - |
| 1778014847 | 13.89° C | 62% | 1015.9 hPa | 0 mm | - | - | - |
| 1778013338 | 13.89° C | 61% | 1016 hPa | 0 mm | - | - | - |
| 1778012436 | 15° C | 60% | 1016 hPa | 0 mm | - | - | - |
| 1778011536 | 15.56° C | 58% | 1016.2 hPa | 0 mm | - | - | - |
| 1778009135 | 16.11° C | 55% | 1016 hPa | 0 mm | - | - | - |
* Rain latest hour (hover to see other rain measurements)
** Current wind speed in m/s (hover to see current wind gust speed)